Time;durP1;ratioP1;P1;durP2;ratioP2;P2;SDS_P1;SDS_P2;PMS_P1;PMS_P2;Temp;Humidity;BMP_temperature;BMP_pressure;BME280_temperature;BME280_humidity;BME280_pressure;Samples;Min_cycle;Max_cycle;Signal;HPM_P1;HPM_P2
2022/11/16 00:01:24;;;;;;;19.58;9.55;;;;;;;2.91;100.00;94294.09;4972820;28;20087;-68
2022/11/16 00:03:51;;;;;;;21.20;9.55;;;;;;;2.84;100.00;94288.31;4958267;28;20125;-69
2022/11/16 00:06:18;;;;;;;21.98;9.55;;;;;;;2.78;100.00;94271.16;4962509;28;20448;-68
2022/11/16 00:09:20;;;;;;;25.65;9.63;;;;;;;2.78;100.00;94268.56;4973570;28;20054;-69
2022/11/16 00:11:36;;;;;;;21.33;8.98;;;;;;;2.78;100.00;94253.75;4972835;28;20051;-69
2022/11/16 00:14:02;;;;;;;29.98;10.60;;;;;;;2.83;100.00;94245.22;4964679;28;20193;-70
2022/11/16 00:16:27;;;;;;;28.67;10.45;;;;;;;2.92;100.00;94233.28;4960966;28;20100;-70
2022/11/16 00:18:58;;;;;;;23.92;10.13;;;;;;;3.17;100.00;94228.47;4973088;28;20047;-70
2022/11/16 00:21:25;;;;;;;28.98;11.75;;;;;;;3.44;100.00;94223.88;4972219;28;20046;-70
2022/11/16 00:23:50;;;;;;;28.20;10.93;;;;;;;3.32;100.00;94227.75;4972541;28;20051;-67
2022/11/16 00:26:16;;;;;;;27.23;11.55;;;;;;;3.54;100.00;94236.16;4964247;28;20050;-68
2022/11/16 00:28:41;;;;;;;24.65;10.85;;;;;;;3.77;100.00;94236.72;4973491;28;20042;-69
2022/11/16 00:31:09;;;;;;;29.15;12.10;;;;;;;3.90;100.00;94238.06;4971799;28;20433;-69
2022/11/16 00:33:34;;;;;;;22.38;11.30;;;;;;;4.04;100.00;94240.91;4969651;28;20051;-69
2022/11/16 00:36:04;;;;;;;26.98;11.80;;;;;;;3.96;100.00;94248.19;4956003;28;20059;-69
2022/11/16 00:38:30;;;;;;;27.30;11.98;;;;;;;3.96;100.00;94235.19;4973301;28;20081;-69
2022/11/16 00:40:55;;;;;;;27.50;12.23;;;;;;;3.92;100.00;94239.38;4972574;28;20460;-70
2022/11/16 00:43:21;;;;;;;25.00;11.00;;;;;;;3.81;100.00;94232.56;4969248;28;20043;-69
2022/11/16 00:45:46;;;;;;;26.95;11.02;;;;;;;3.76;100.00;94245.56;4971780;28;20121;-69
2022/11/16 00:48:12;;;;;;;25.42;11.18;;;;;;;3.72;100.00;94241.91;4972310;28;20515;-69
2022/11/16 00:50:38;;;;;;;29.27;13.27;;;;;;;3.58;100.00;94245.00;4973018;28;20042;-69
2022/11/16 00:53:05;;;;;;;26.00;11.50;;;;;;;3.63;100.00;94247.63;4971726;28;20137;-68
2022/11/16 00:55:32;;;;;;;32.45;11.35;;;;;;;3.63;100.00;94250.22;4964679;28;20035;-69
2022/11/16 00:57:57;;;;;;;28.83;11.98;;;;;;;3.61;100.00;94259.31;4969577;28;20082;-69
2022/11/16 01:00:23;;;;;;;25.10;11.63;;;;;;;3.57;100.00;94253.06;4973024;28;20517;-69
2022/11/16 01:02:48;;;;;;;29.60;11.10;;;;;;;3.57;100.00;94259.03;4971589;28;20073;-68
2022/11/16 01:05:14;;;;;;;30.00;11.02;;;;;;;3.44;100.00;94259.53;4962270;28;20473;-69
2022/11/16 01:07:40;;;;;;;28.58;11.88;;;;;;;3.53;100.00;94257.97;4967299;28;20066;-69
2022/11/16 01:10:13;;;;;;;30.67;12.55;;;;;;;3.57;100.00;94247.88;4972679;28;20043;-69
2022/11/16 01:12:39;;;;;;;28.48;11.80;;;;;;;3.52;100.00;94243.44;4970198;28;20190;-69
2022/11/16 01:15:09;;;;;;;28.95;12.35;;;;;;;3.51;100.00;94241.88;4968654;28;20543;-69
2022/11/16 01:17:36;;;;;;;29.80;12.50;;;;;;;3.53;100.00;94242.38;4972516;28;20082;-68
2022/11/16 01:20:04;;;;;;;31.52;12.65;;;;;;;3.55;100.00;94240.31;4972250;28;20058;-69
2022/11/16 01:22:31;;;;;;;34.00;13.10;;;;;;;3.54;100.00;94233.53;4970705;28;20043;-69
2022/11/16 01:24:56;;;;;;;29.58;11.85;;;;;;;3.64;100.00;94217.19;4960952;28;20054;-69
2022/11/16 01:27:22;;;;;;;30.17;12.18;;;;;;;3.71;100.00;94222.16;4961742;28;20549;-69
2022/11/16 01:29:47;;;;;;;26.30;11.45;;;;;;;3.74;100.00;94206.78;4972218;28;20058;-69
2022/11/16 01:32:13;;;;;;;29.98;11.82;;;;;;;3.76;100.00;94209.13;4972018;28;20051;-69
2022/11/16 01:34:38;;;;;;;29.35;13.27;;;;;;;3.79;100.00;94208.63;4969584;28;20054;-69
2022/11/16 01:37:04;;;;;;;29.33;12.38;;;;;;;3.77;100.00;94200.28;4958934;28;20054;-68
2022/11/16 01:39:30;;;;;;;31.00;13.02;;;;;;;3.76;100.00;94198.72;4971905;28;20050;-68
2022/11/16 01:41:55;;;;;;;24.45;11.07;;;;;;;3.75;100.00;94202.34;4966720;28;20034;-69
2022/11/16 01:44:30;;;;;;;28.08;12.18;;;;;;;3.88;100.00;94207.09;4971194;28;20053;-68
2022/11/16 01:46:56;;;;;;;;;;;;;;;3.90;100.00;94207.59;4970860;28;20146;-68
2022/11/16 01:49:24;;;;;;;35.55;11.75;;;;;;;3.98;100.00;94201.88;4971783;28;19922;-68
2022/11/16 01:52:03;;;;;;;32.35;11.52;;;;;;;3.99;100.00;94203.44;4971729;28;20583;-69
2022/11/16 01:54:31;;;;;;;25.70;11.20;;;;;;;4.06;100.00;94202.41;4965803;28;20565;-68
2022/11/16 01:57:01;;;;;;;28.65;11.85;;;;;;;4.03;100.00;94208.13;4963236;28;20078;-69
2022/11/16 01:59:28;;;;;;;26.33;11.07;;;;;;;4.02;100.00;94211.78;4971887;28;20047;-69
2022/11/16 02:01:53;;;;;;;26.42;12.57;;;;;;;4.03;100.00;94213.34;4971028;28;20041;-69
2022/11/16 02:04:19;;;;;;;29.95;12.30;;;;;;;4.10;100.00;94206.81;4970302;28;20125;-69
2022/11/16 02:06:56;;;;;;;26.05;11.30;;;;;;;4.08;100.00;94200.31;4970480;28;20047;-68
2022/11/16 02:09:57;;;;;;;24.83;10.88;;;;;;;3.86;100.00;94193.53;4971757;28;20054;-68
2022/11/16 02:12:44;;;;;;;32.47;10.35;;;;;;;3.97;100.00;94189.91;4966524;28;20043;-69
2022/11/16 02:15:22;;;;;;;19.15;10.35;;;;;;;4.08;100.00;94189.91;4970223;28;20038;-69
2022/11/16 02:18:18;;;;;;;30.08;10.00;;;;;;;4.11;100.00;94199.81;4970905;28;20058;-69
2022/11/16 02:20:59;;;;;;;20.05;9.68;;;;;;;4.16;100.00;94197.19;4967003;28;20515;-69
2022/11/16 02:23:49;;;;;;;20.65;9.32;;;;;;;4.17;100.00;94183.13;4967600;28;20039;-69
2022/11/16 02:26:28;;;;;;;22.00;8.75;;;;;;;3.95;100.00;94176.38;4965517;28;20057;-68
2022/11/16 02:29:00;;;;;;;19.05;8.95;;;;;;;4.08;100.00;94184.69;4970745;28;20685;-69
2022/11/16 02:31:33;;;;;;;18.52;9.48;;;;;;;4.05;100.00;94174.81;4971631;28;20050;-69
2022/11/16 02:34:00;;;;;;;19.00;9.32;;;;;;;4.14;100.00;94188.88;4969015;28;20124;-69
2022/11/16 02:36:25;;;;;;;22.33;8.95;;;;;;;4.26;100.00;94194.59;4969792;28;20050;-69
2022/11/16 02:39:02;;;;;;;20.02;9.88;;;;;;;4.39;100.00;94195.09;4970833;28;20055;-69
2022/11/16 02:41:33;;;;;;;18.88;8.52;;;;;;;4.38;100.00;94191.69;4971202;28;20520;-69
2022/11/16 02:44:05;;;;;;;16.42;8.55;;;;;;;4.40;100.00;94181.03;4968958;28;20058;-69
2022/11/16 02:46:36;;;;;;;18.02;8.45;;;;;;;4.48;100.00;94183.09;4970417;28;20109;-69
2022/11/16 02:49:05;;;;;;;18.27;9.00;;;;;;;4.51;100.00;94178.16;4964633;28;20424;-68
2022/11/16 02:51:32;;;;;;;15.88;8.60;;;;;;;4.52;100.00;94171.09;4962343;28;20062;-69
2022/11/16 02:54:11;;;;;;;16.67;8.77;;;;;;;4.48;100.00;94172.69;4969497;28;20043;-68
2022/11/16 02:56:49;;;;;;;15.65;9.05;;;;;;;4.53;100.00;94174.50;4964912;28;20039;-68
2022/11/16 02:59:15;;;;;;;14.95;8.63;;;;;;;4.51;100.00;94166.94;4969813;28;20512;-68
2022/11/16 03:01:49;;;;;;;18.75;9.10;;;;;;;4.49;100.00;94169.03;4969217;28;20061;-69
2022/11/16 03:04:24;;;;;;;17.58;9.18;;;;;;;4.48;100.00;94172.69;4968572;28;20047;-69
2022/11/16 03:06:50;;;;;;;;;;;;;;;4.48;100.00;94172.69;4969620;28;20049;-68
2022/11/16 03:09:20;;;;;;;15.10;8.48;;;;;;;4.49;100.00;94169.03;4970685;28;19922;-68
2022/11/16 03:12:01;;;;;;;20.45;9.55;;;;;;;4.50;100.00;94181.03;4970705;28;20051;-68
2022/11/16 03:14:39;;;;;;;14.43;8.98;;;;;;;4.64;100.00;94192.47;4965949;28;20044;-68
2022/11/16 03:17:10;;;;;;;18.92;9.45;;;;;;;4.71;100.00;94201.81;4966091;28;20457;-68
2022/11/16 03:19:43;;;;;;;19.02;10.90;;;;;;;4.67;100.00;94197.16;4970580;28;20114;-68
2022/11/16 03:22:30;;;;;;;19.65;10.15;;;;;;;4.62;100.00;94188.56;4967748;28;20043;-68
2022/11/16 03:24:56;;;;;;;23.58;11.02;;;;;;;4.61;100.00;94179.97;4955524;28;20093;-69
2022/11/16 03:27:45;;;;;;;21.48;11.32;;;;;;;4.55;100.00;94178.41;4962164;28;20051;-69
2022/11/16 03:30:22;;;;;;;22.40;10.55;;;;;;;4.59;100.00;94179.44;4963214;28;20049;-68
2022/11/16 03:32:56;;;;;;;20.10;10.55;;;;;;;4.63;100.00;94183.06;4970687;28;20055;-69
2022/11/16 03:35:37;;;;;;;19.40;10.85;;;;;;;4.57;100.00;94189.34;4958057;28;20069;-68
2022/11/16 03:38:06;;;;;;;22.90;10.75;;;;;;;4.58;100.00;94197.94;4961546;28;20039;-67
2022/11/16 03:40:35;;;;;;;21.45;11.48;;;;;;;4.57;100.00;94191.97;4973764;28;20501;-67
2022/11/16 03:43:03;;;;;;;21.60;11.23;;;;;;;4.56;100.00;94195.59;4973361;28;20113;-68
2022/11/16 03:45:30;;;;;;;21.50;11.20;;;;;;;4.55;100.00;94214.88;4956531;28;20043;-67
2022/11/16 03:47:55;;;;;;;20.10;10.77;;;;;;;4.60;100.00;94211.50;4967440;28;20050;-67
2022/11/16 03:50:21;;;;;;;25.35;11.82;;;;;;;4.61;100.00;94216.44;4971939;28;20058;-67
2022/11/16 03:52:47;;;;;;;22.80;11.75;;;;;;;4.67;100.00;94228.41;4973742;28;20049;-68
2022/11/16 03:55:12;;;;;;;23.02;12.35;;;;;;;4.73;100.00;94225.81;4972329;28;20098;-68
2022/11/16 03:57:38;;;;;;;21.77;11.10;;;;;;;4.63;100.00;94235.19;4973328;28;20508;-68
2022/11/16 04:00:05;;;;;;;23.15;11.68;;;;;;;4.68;100.00;94235.19;4973371;28;20061;-67
2022/11/16 04:02:31;;;;;;;23.10;11.77;;;;;;;4.68;100.00;94244.81;4973652;28;20043;-68
2022/11/16 04:24:18;;;;;;;24.52;12.73;;;;;;;4.64;100.00;94260.22;4960926;28;20042;-68
2022/11/16 04:29:32;;;;;;;30.40;13.90;;;;;;;4.53;100.00;94274.28;4962669;28;20093;-68
2022/11/16 04:40:11;;;;;;;29.80;13.40;;;;;;;4.65;100.00;94276.63;4966713;28;20043;-69
2022/11/16 04:42:37;;;;;;;26.40;12.68;;;;;;;4.74;100.00;94284.69;4972572;28;20047;-69
2022/11/16 04:47:48;;;;;;;24.52;12.43;;;;;;;4.79;100.00;94277.66;4963520;28;20043;-70
2022/11/16 04:50:14;;;;;;;24.80;12.45;;;;;;;4.91;100.00;94279.97;4963942;28;20039;-69
2022/11/16 04:52:40;;;;;;;24.77;12.45;;;;;;;4.98;100.00;94274.50;4967516;28;20683;-70
2022/11/16 04:55:06;;;;;;;25.77;12.52;;;;;;;5.08;100.00;94284.91;4964148;28;20138;-69
2022/11/16 04:57:31;;;;;;;24.10;11.90;;;;;;;5.07;100.00;94285.16;4972763;28;20043;-69
2022/11/16 04:59:57;;;;;;;23.35;11.88;;;;;;;5.03;100.00;94288.31;4972336;28;20353;-69
2022/11/16 05:02:22;;;;;;;23.30;11.05;;;;;;;4.95;100.00;94278.41;4972881;28;20448;-69
2022/11/16 05:04:48;;;;;;;22.05;11.35;;;;;;;5.10;100.00;94289.84;4964387;28;20047;-68
2022/11/16 05:07:14;;;;;;;22.20;11.65;;;;;;;5.09;100.00;94290.91;4970862;28;20047;-68
2022/11/16 05:09:42;;;;;;;22.75;11.77;;;;;;;5.09;100.00;94290.91;4959719;28;20054;-69
2022/11/16 05:12:09;;;;;;;21.20;12.07;;;;;;;5.10;100.00;94292.47;4972784;28;20047;-69
2022/11/16 05:14:35;;;;;;;22.15;11.98;;;;;;;5.11;100.00;94294.81;4970840;28;20110;-69
2022/11/16 05:17:00;;;;;;;30.45;13.90;;;;;;;5.07;100.00;94299.00;4971887;28;20054;-70
2022/11/16 05:22:10;;;;;;;23.73;12.63;;;;;;;5.05;100.00;94301.06;4970645;28;20062;-68
2022/11/16 05:24:35;;;;;;;22.60;12.27;;;;;;;4.99;100.00;94302.91;4970939;28;20051;-67
2022/11/16 05:27:03;;;;;;;30.85;13.13;;;;;;;5.03;100.00;94309.16;4962695;28;20054;-68
2022/11/16 05:29:29;;;;;;;24.23;12.02;;;;;;;5.01;100.00;94305.25;4972421;28;20042;-67
2022/11/16 05:31:55;;;;;;;27.30;12.93;;;;;;;5.02;100.00;94312.81;4972123;28;20055;-67
2022/11/16 05:34:21;;;;;;;25.15;12.45;;;;;;;5.05;100.00;94308.13;4966504;28;20418;-67
2022/11/16 05:36:47;;;;;;;23.63;12.02;;;;;;;5.07;100.00;94308.63;4962606;28;20042;-68
2022/11/16 05:39:12;;;;;;;26.20;11.80;;;;;;;5.05;100.00;94306.28;4971863;28;20066;-67
2022/11/16 05:41:38;;;;;;;24.85;12.75;;;;;;;5.00;100.00;94312.31;4971889;28;20062;-67
2022/11/16 05:44:03;;;;;;;26.90;13.27;;;;;;;5.02;100.00;94309.44;4968228;28;20105;-67
2022/11/16 05:46:29;;;;;;;31.05;13.00;;;;;;;5.07;100.00;94311.25;4971478;28;20098;-69
2022/11/16 05:48:55;;;;;;;27.17;13.05;;;;;;;5.05;100.00;94315.94;4971591;28;20054;-67
2022/11/16 05:51:20;;;;;;;25.05;12.20;;;;;;;5.02;100.00;94315.41;4970360;28;20142;-68
2022/11/16 05:53:48;;;;;;;33.28;13.82;;;;;;;5.05;100.00;94318.56;4969446;28;20061;-68
2022/11/16 05:56:14;;;;;;;29.42;12.77;;;;;;;5.07;100.00;94313.84;4969053;28;20102;-68
2022/11/16 05:58:42;;;;;;;28.73;13.13;;;;;;;5.13;100.00;94312.78;4969290;28;20059;-68
2022/11/16 06:01:07;;;;;;;24.17;12.02;;;;;;;5.07;100.00;94316.47;4970963;28;20110;-68
2022/11/16 06:03:35;;;;;;;30.42;13.48;;;;;;;5.07;100.00;94319.06;4967888;28;20039;-69
2022/11/16 06:06:01;;;;;;;27.10;12.35;;;;;;;5.07;100.00;94319.06;4965028;28;20042;-68
2022/11/16 06:08:26;;;;;;;26.83;13.27;;;;;;;5.08;100.00;94320.63;4971543;28;20043;-67
2022/11/16 06:10:52;;;;;;;25.90;12.35;;;;;;;5.07;100.00;94313.84;4970330;28;20038;-68
2022/11/16 06:13:18;;;;;;;27.98;13.23;;;;;;;5.09;100.00;94322.97;4963859;28;20097;-68
2022/11/16 06:15:44;;;;;;;30.80;12.95;;;;;;;5.11;100.00;94314.91;4969794;28;20097;-68
2022/11/16 06:18:09;;;;;;;24.38;12.85;;;;;;;5.11;100.00;94320.88;4971367;28;20046;-68
2022/11/16 06:20:37;;;;;;;28.77;12.77;;;;;;;5.10;100.00;94318.53;4970776;28;20519;-67
2022/11/16 06:23:03;;;;;;;29.50;12.88;;;;;;;5.07;100.00;94314.66;4956854;28;20551;-68
2022/11/16 06:25:29;;;;;;;34.30;13.50;;;;;;;5.08;100.00;94320.63;4970694;28;20042;-67
2022/11/16 06:27:56;;;;;;;31.67;13.70;;;;;;;5.11;100.00;94314.91;4966939;28;20062;-67
2022/11/16 06:30:21;;;;;;;29.95;13.35;;;;;;;5.11;100.00;94320.09;4970886;28;20428;-68
2022/11/16 06:32:47;;;;;;;33.83;12.75;;;;;;;5.13;100.00;94312.78;4973593;28;20042;-68
2022/11/16 06:35:12;;;;;;;29.40;13.70;;;;;;;5.10;100.00;94315.94;4974660;28;20487;-67
2022/11/16 06:37:38;;;;;;;26.70;13.25;;;;;;;5.13;100.00;94318.00;4959113;28;20082;-68
2022/11/16 06:40:04;;;;;;;25.40;13.23;;;;;;;5.13;100.00;94313.59;4972281;28;20416;-68
2022/11/16 06:42:30;;;;;;;29.70;13.43;;;;;;;5.15;100.00;94313.31;4974891;28;20058;-68
2022/11/16 06:44:55;;;;;;;28.92;12.60;;;;;;;5.18;100.00;94318.00;4972732;28;20051;-69
2022/11/16 06:47:21;;;;;;;35.45;13.65;;;;;;;5.17;100.00;94313.81;4974292;28;20039;-68
2022/11/16 06:49:46;;;;;;;28.10;12.82;;;;;;;5.09;100.00;94311.78;4969491;28;20054;-68
2022/11/16 06:52:12;;;;;;;26.33;12.50;;;;;;;5.17;100.00;94319.03;4974092;28;20046;-67
2022/11/16 06:54:38;;;;;;;32.70;13.13;;;;;;;5.17;100.00;94313.81;4969554;28;20043;-67
2022/11/16 06:57:03;;;;;;;26.85;12.90;;;;;;;5.19;100.00;94311.75;4967720;28;20122;-68
2022/11/16 06:59:29;;;;;;;39.10;13.57;;;;;;;5.17;100.00;94313.81;4971243;28;20049;-69
2022/11/16 07:01:54;;;;;;;30.95;12.50;;;;;;;5.20;100.00;94315.91;4969748;28;20050;-72
2022/11/16 07:04:20;;;;;;;29.77;13.13;;;;;;;5.17;100.00;94324.25;4966808;28;20049;-69
2022/11/16 07:06:46;;;;;;;30.98;13.63;;;;;;;5.18;100.00;94310.94;4969918;28;20047;-68
2022/11/16 07:09:13;;;;;;;30.30;13.80;;;;;;;5.16;100.00;94312.28;4971215;28;20061;-68
2022/11/16 07:11:38;;;;;;;27.88;12.52;;;;;;;5.23;100.00;94312.00;4963189;28;20051;-68
2022/11/16 07:14:04;;;;;;;31.10;13.43;;;;;;;5.27;100.00;94311.22;4957356;28;20520;-69
2022/11/16 07:16:30;;;;;;;28.73;12.68;;;;;;;5.29;100.00;94310.94;4973316;28;20090;-70
2022/11/16 07:18:57;;;;;;;28.17;13.48;;;;;;;5.31;100.00;94314.06;4973671;28;20047;-68
2022/11/16 07:21:24;;;;;;;29.10;13.52;;;;;;;5.34;100.00;94318.75;4957033;28;20039;-69
2022/11/16 07:23:50;;;;;;;31.10;13.38;;;;;;;5.29;100.00;94316.16;4973674;28;20591;-68
2022/11/16 07:26:16;;;;;;;33.47;12.95;;;;;;;5.22;100.00;94316.44;4971523;28;20129;-68
2022/11/16 07:28:41;;;;;;;30.50;13.27;;;;;;;5.33;100.00;94307.53;4973618;28;20685;-74
2022/11/16 07:31:10;;;;;;;31.67;13.85;;;;;;;5.38;100.00;94310.13;4973464;28;20122;-69
2022/11/16 07:50:30;;;;;;;31.52;13.13;;;;;;;5.61;100.00;94318.41;4930489;29;20047;-68
2022/11/16 07:52:55;;;;;;;30.98;12.43;;;;;;;5.68;100.00;94324.13;4930233;29;20207;-68
2022/11/16 07:55:24;;;;;;;36.45;14.18;;;;;;;5.76;100.00;94309.75;4956056;28;20069;-70
2022/11/16 07:57:49;;;;;;;36.90;13.20;;;;;;;5.81;100.00;94327.22;4965423;28;20125;-68
2022/11/16 08:00:15;;;;;;;30.10;13.35;;;;;;;5.86;100.00;94319.34;4972012;28;20576;-69
2022/11/16 08:02:41;;;;;;;39.65;14.27;;;;;;;5.92;100.00;94318.28;4972537;28;20050;-69
2022/11/16 08:05:07;;;;;;;34.65;14.30;;;;;;;5.93;100.00;94319.84;4962789;28;20043;-69
2022/11/16 08:07:34;;;;;;;73.72;23.17;;;;;;;5.98;100.00;94327.69;4973881;28;20049;-68
2022/11/16 08:10:00;;;;;;;59.78;22.75;;;;;;;6.03;100.00;94325.06;4970767;28;20093;-69
2022/11/16 08:12:25;;;;;;;43.15;15.95;;;;;;;6.04;100.00;94337.03;4970466;28;20054;-69
2022/11/16 08:14:51;;;;;;;37.70;14.20;;;;;;;6.01;100.00;94336.81;4972364;28;20051;-69
2022/11/16 08:17:17;;;;;;;35.95;15.18;;;;;;;6.02;100.00;94333.94;4969591;28;20485;-72
2022/11/16 08:19:42;;;;;;;32.50;13.88;;;;;;;6.05;100.00;94333.41;4971997;28;20128;-69
2022/11/16 08:22:08;;;;;;;34.78;15.52;;;;;;;6.15;100.00;94339.59;4973174;28;20047;-69
2022/11/16 08:24:33;;;;;;;37.05;13.90;;;;;;;6.19;100.00;94332.78;4972167;28;20646;-69
2022/11/16 08:26:59;;;;;;;38.00;14.27;;;;;;;6.20;100.00;94340.34;4963028;28;20072;-69
2022/11/16 08:29:25;;;;;;;31.80;13.65;;;;;;;6.24;100.00;94335.38;4972550;28;20170;-69
2022/11/16 08:31:51;;;;;;;37.47;12.70;;;;;;;6.31;100.00;94341.09;4972766;28;20058;-68
2022/11/16 08:34:17;;;;;;;29.50;12.00;;;;;;;6.34;100.00;94339.78;4967917;28;20513;-69
2022/11/16 08:36:42;;;;;;;29.92;12.00;;;;;;;6.46;100.00;94337.59;4961885;28;20054;-68
2022/11/16 08:39:08;;;;;;;31.33;12.50;;;;;;;6.51;100.00;94339.41;4972411;28;20047;-69
2022/11/16 08:41:36;;;;;;;26.75;11.00;;;;;;;6.61;100.00;94344.56;4972941;28;20043;-69
2022/11/16 08:44:03;;;;;;;27.88;11.88;;;;;;;6.70;100.00;94348.16;4972162;28;20043;-69
2022/11/16 08:46:28;;;;;;;23.48;11.30;;;;;;;6.76;100.00;94352.28;4972583;28;20394;-69
2022/11/16 08:48:55;;;;;;;30.17;11.45;;;;;;;6.83;100.00;94345.97;4973244;28;20070;-68
2022/11/16 08:51:22;;;;;;;27.55;11.35;;;;;;;6.81;100.00;94337.59;4970995;28;20461;-68
2022/11/16 08:53:48;;;;;;;27.33;11.85;;;;;;;6.84;100.00;94342.28;4969520;28;20038;-69
2022/11/16 08:56:16;;;;;;;27.83;11.77;;;;;;;6.87;100.00;94341.75;4961745;28;20126;-69
2022/11/16 08:58:43;;;;;;;24.73;11.93;;;;;;;7.00;100.00;94346.34;4972933;28;20707;-69
2022/11/16 09:01:17;;;;;;;27.63;11.98;;;;;;;7.00;100.00;94343.75;4972507;28;20519;-69
2022/11/16 09:03:43;;;;;;;33.13;11.27;;;;;;;7.07;100.00;94346.81;4970159;28;20051;-69
2022/11/16 09:06:09;;;;;;;24.67;11.18;;;;;;;7.13;100.00;94344.16;4971584;28;20070;-68
2022/11/16 09:08:37;;;;;;;24.45;11.30;;;;;;;7.17;100.00;94345.16;4972231;28;20046;-69
2022/11/16 09:11:12;;;;;;;26.30;10.88;;;;;;;7.23;100.00;94349.28;4960260;28;20049;-69
2022/11/16 09:13:38;;;;;;;22.30;10.90;;;;;;;7.29;100.00;94354.19;4972197;28;20548;-69
2022/11/16 09:16:04;;;;;;;20.95;10.48;;;;;;;7.28;100.00;94346.63;4972090;28;20059;-69
2022/11/16 09:18:30;;;;;;;23.05;10.48;;;;;;;7.32;100.00;94352.09;4962374;28;20039;-69
2022/11/16 09:20:56;;;;;;;20.52;9.65;;;;;;;7.36;100.00;94353.88;4973123;28;20047;-69
2022/11/16 09:23:22;;;;;;;27.42;10.70;;;;;;;7.37;100.00;94354.66;4962539;28;20051;-69
2022/11/16 09:25:48;;;;;;;27.65;12.45;;;;;;;7.42;100.00;94347.53;4961849;28;20058;-69
2022/11/16 09:28:15;;;;;;;30.63;12.70;;;;;;;7.52;100.00;94346.66;4954735;28;20047;-69
2022/11/16 09:30:42;;;;;;;28.25;11.75;;;;;;;7.60;100.00;94353.09;4954167;28;20055;-69
2022/11/16 09:33:08;;;;;;;23.27;9.38;;;;;;;7.75;100.00;94355.56;4965945;28;20035;-69
2022/11/16 09:35:33;;;;;;;22.13;10.50;;;;;;;7.67;100.00;94364.03;4963282;28;20049;-69
2022/11/16 09:37:59;;;;;;;24.05;10.70;;;;;;;7.73;100.00;94357.69;4971296;28;20061;-68
2022/11/16 09:40:33;;;;;;;25.80;10.80;;;;;;;7.78;100.00;94365.47;4973491;28;20047;-69
2022/11/16 09:43:10;;;;;;;20.40;9.32;;;;;;;7.80;100.00;94358.13;4968692;28;20049;-69
2022/11/16 09:45:55;;;;;;;22.02;9.25;;;;;;;7.91;100.00;94358.00;4969549;28;20043;-74
2022/11/16 09:48:21;;;;;;;;;;;;;;;7.93;100.00;94358.50;4971163;28;20038;-69
2022/11/16 09:50:57;;;;;;;20.63;9.00;;;;;;;8.00;100.00;94361.56;4970877;28;19948;-71
2022/11/16 09:53:58;;;;;;;20.20;8.77;;;;;;;8.05;100.00;94358.88;4967400;28;20038;-72
2022/11/16 09:56:27;;;;;;;19.67;8.60;;;;;;;8.07;100.00;94364.59;4963066;28;20468;-70
2022/11/16 09:59:08;;;;;;;18.30;8.65;;;;;;;8.06;100.00;94359.66;4971757;28;20046;-71
2022/11/16 10:01:49;;;;;;;20.90;8.68;;;;;;;8.12;100.00;94367.19;4971982;28;20044;-68
2022/11/16 10:04:42;;;;;;;15.57;8.50;;;;;;;8.09;100.00;94370.38;4953365;29;20044;-67
2022/11/16 10:07:30;;;;;;;17.90;7.85;;;;;;;8.14;100.00;94367.66;4967751;28;20054;-67
2022/11/16 10:09:56;;;;;;;14.68;7.28;;;;;;;8.18;100.00;94365.28;4958856;28;20039;-68
2022/11/16 10:12:45;;;;;;;14.23;7.18;;;;;;;8.12;100.00;94364.56;4964240;28;20046;-70
2022/11/16 10:15:28;;;;;;;18.73;8.18;;;;;;;8.10;100.00;94364.06;4965505;28;20050;-68
2022/11/16 10:18:14;;;;;;;18.63;8.15;;;;;;;8.13;100.00;94368.75;4969909;28;20043;-68
2022/11/16 10:20:45;;;;;;;19.75;8.25;;;;;;;8.22;100.00;94362.88;4971318;28;20051;-68
2022/11/16 10:23:33;;;;;;;21.35;7.70;;;;;;;8.32;100.00;94358.28;4970941;28;20078;-68
2022/11/16 10:26:21;;;;;;;18.95;8.82;;;;;;;8.35;100.00;94367.41;4958828;28;20051;-68
2022/11/16 10:29:17;;;;;;;21.60;9.15;;;;;;;8.35;100.00;94362.19;4966745;28;20039;-67
2022/11/16 10:32:16;;;;;;;15.60;7.47;;;;;;;8.36;100.00;94368.19;4969006;28;20432;-67
2022/11/16 10:34:49;;;;;;;18.70;8.45;;;;;;;8.32;100.00;94362.75;4965200;28;20047;-67
2022/11/16 10:37:15;;;;;;;14.52;8.15;;;;;;;8.32;100.00;94360.13;4969255;28;20543;-68
2022/11/16 10:39:41;;;;;;;15.73;7.72;;;;;;;8.28;100.00;94356.50;4972843;28;20058;-68
2022/11/16 10:42:15;;;;;;;19.60;6.97;;;;;;;8.29;100.00;94355.44;4968156;28;20039;-67
2022/11/16 10:44:46;;;;;;;23.13;8.48;;;;;;;8.28;100.00;94351.25;4968392;28;20050;-68
2022/11/16 10:47:26;;;;;;;17.77;8.32;;;;;;;8.32;100.00;94357.50;4972116;28;20057;-68
2022/11/16 10:50:24;;;;;;;15.52;7.35;;;;;;;8.47;100.00;94359.94;4970572;28;20544;-67
2022/11/16 10:52:49;;;;;;;15.52;7.15;;;;;;;8.37;100.00;94348.78;4972411;28;20449;-68
2022/11/16 10:55:15;;;;;;;20.50;10.05;;;;;;;8.37;100.00;94354.78;4957277;28;20040;-68
2022/11/16 10:57:58;;;;;;;18.50;8.60;;;;;;;8.46;100.00;94350.53;4971447;28;20054;-68
2022/11/16 11:00:41;;;;;;;17.00;7.43;;;;;;;8.55;100.00;94349.84;4995742;28;20282;-66
2022/11/16 11:03:11;;;;;;;13.67;7.17;;;;;;;8.57;100.00;94347.75;4995925;28;20057;-67
2022/11/16 11:05:48;;;;;;;18.63;9.30;;;;;;;8.59;100.00;94345.59;5009436;28;20050;-68
2022/11/16 11:08:25;;;;;;;19.60;8.43;;;;;;;8.64;100.00;94348.94;4998119;28;20041;-68
2022/11/16 11:11:00;;;;;;;20.38;8.63;;;;;;;8.57;100.00;94327.53;4993680;28;20027;-68
2022/11/16 11:13:26;;;;;;;22.58;9.90;;;;;;;8.66;100.00;94330.28;4979733;28;20047;-68
2022/11/16 11:16:13;;;;;;;22.42;9.05;;;;;;;8.76;100.00;94335.38;4989547;28;20057;-67
2022/11/16 11:18:39;;;;;;;20.23;10.07;;;;;;;8.82;100.00;94334.25;4966902;28;20086;-69
2022/11/16 11:21:19;;;;;;;25.52;10.35;;;;;;;8.86;100.00;94338.91;4977470;28;20050;-67
2022/11/16 11:23:51;;;;;;;22.05;9.38;;;;;;;8.96;100.00;94334.28;4977379;28;20039;-68
2022/11/16 11:26:34;;;;;;;21.17;8.90;;;;;;;8.94;100.00;94335.66;4970113;28;20047;-68
2022/11/16 11:29:01;;;;;;;20.85;10.10;;;;;;;8.96;100.00;94333.50;4974546;28;20101;-69
2022/11/16 11:31:48;;;;;;;22.50;11.10;;;;;;;8.95;100.00;94334.56;4976752;28;20051;-68
2022/11/16 11:34:28;;;;;;;18.15;8.85;;;;;;;9.03;100.00;94331.28;4975307;28;20551;-69
2022/11/16 11:36:53;;;;;;;26.27;10.57;;;;;;;9.08;100.00;94336.47;4963973;28;20074;-68
2022/11/16 11:39:18;;;;;;;19.05;8.32;;;;;;;9.11;100.00;94330.63;4978562;28;20105;-69
2022/11/16 11:41:58;;;;;;;15.77;7.95;;;;;;;9.10;100.00;94328.31;4980023;28;20668;-67
2022/11/16 11:44:41;;;;;;;16.77;7.70;;;;;;;9.06;100.00;94328.09;4975481;28;20424;-68
2022/11/16 11:47:19;;;;;;;15.13;7.25;;;;;;;9.10;100.00;94333.56;4974874;28;20138;-68
2022/11/16 11:49:51;;;;;;;17.33;7.75;;;;;;;9.10;100.00;94330.94;4971733;28;20047;-68
2022/11/16 11:52:26;;;;;;;20.73;8.30;;;;;;;9.16;100.00;94335.78;4974348;28;20062;-69
2022/11/16 11:54:54;;;;;;;17.17;7.30;;;;;;;9.16;100.00;94338.41;4967425;28;20055;-68
2022/11/16 11:57:22;;;;;;;15.68;7.50;;;;;;;9.30;100.00;94343.69;4964827;28;20138;-68
2022/11/16 11:59:51;;;;;;;15.15;6.25;;;;;;;9.35;100.00;94350.69;4974151;28;20043;-68
2022/11/16 12:02:35;;;;;;;15.27;6.80;;;;;;;9.46;100.00;94349.44;4975024;28;20053;-71
2022/11/16 12:05:04;;;;;;;12.27;6.32;;;;;;;9.48;100.00;94338.66;4971031;28;20051;-69
2022/11/16 12:07:35;;;;;;;15.50;6.65;;;;;;;9.47;100.00;94337.88;4972729;28;20053;-68
2022/11/16 12:10:22;;;;;;;13.10;6.20;;;;;;;9.51;100.00;94344.13;4972790;28;20054;-68
2022/11/16 12:12:57;;;;;;;13.73;5.93;;;;;;;9.48;100.00;94338.66;4974297;28;20490;-67
2022/11/16 12:15:50;;;;;;;13.18;6.38;;;;;;;9.48;100.00;94338.66;4976256;28;20042;-69
2022/11/16 12:18:22;;;;;;;15.10;6.85;;;;;;;9.48;100.00;94344.69;4976138;28;20167;-67
2022/11/16 12:21:12;;;;;;;16.08;7.20;;;;;;;9.43;100.00;94336.13;4973044;28;20141;-67
2022/11/16 12:23:50;;;;;;;13.57;6.30;;;;;;;9.41;100.00;94339.06;4973774;28;20114;-68
2022/11/16 12:26:16;;;;;;;13.38;6.00;;;;;;;9.37;100.00;94332.81;4970291;28;20039;-69